sensor_id;sensor_type;location;lat;lon;timestamp;temperature;humidity
17442;DHT22;8838;50.144;8.176;2023-04-15T00:01:09;3.60;99.90
17442;DHT22;8838;50.144;8.176;2023-04-15T00:03:37;3.50;99.90
17442;DHT22;8838;50.144;8.176;2023-04-15T00:06:06;3.50;99.90
17442;DHT22;8838;50.144;8.176;2023-04-15T00:08:33;3.50;99.90
17442;DHT22;8838;50.144;8.176;2023-04-15T00:11:01;3.50;99.90
17442;DHT22;8838;50.144;8.176;2023-04-15T00:13:30;3.50;99.90
17442;DHT22;8838;50.144;8.176;2023-04-15T00:16:06;3.50;99.90
17442;DHT22;8838;50.144;8.176;2023-04-15T00:18:35;3.50;99.90
17442;DHT22;8838;50.144;8.176;2023-04-15T00:21:02;3.50;99.90
17442;DHT22;8838;50.144;8.176;2023-04-15T00:23:30;3.60;99.90
17442;DHT22;8838;50.144;8.176;2023-04-15T00:25:57;3.50;99.90
17442;DHT22;8838;50.144;8.176;2023-04-15T00:28:24;3.40;99.90
17442;DHT22;8838;50.144;8.176;2023-04-15T00:30:52;3.40;99.90
17442;DHT22;8838;50.144;8.176;2023-04-15T00:33:19;3.40;99.90
17442;DHT22;8838;50.144;8.176;2023-04-15T00:35:46;3.20;99.90
17442;DHT22;8838;50.144;8.176;2023-04-15T00:38:13;3.20;99.90
17442;DHT22;8838;50.144;8.176;2023-04-15T00:40:42;3.10;99.90
17442;DHT22;8838;50.144;8.176;2023-04-15T00:43:09;3.20;99.90
17442;DHT22;8838;50.144;8.176;2023-04-15T00:45:36;3.20;99.90
17442;DHT22;8838;50.144;8.176;2023-04-15T00:48:03;3.10;99.90
17442;DHT22;8838;50.144;8.176;2023-04-15T00:50:31;3.10;99.90
17442;DHT22;8838;50.144;8.176;2023-04-15T00:52:58;3.00;99.90
17442;DHT22;8838;50.144;8.176;2023-04-15T00:55:25;3.00;99.90
17442;DHT22;8838;50.144;8.176;2023-04-15T00:57:54;3.00;99.90
17442;DHT22;8838;50.144;8.176;2023-04-15T01:00:22;3.10;99.90
17442;DHT22;8838;50.144;8.176;2023-04-15T01:02:49;3.10;99.90
17442;DHT22;8838;50.144;8.176;2023-04-15T01:05:16;3.00;99.90
17442;DHT22;8838;50.144;8.176;2023-04-15T01:07:44;3.00;99.90
17442;DHT22;8838;50.144;8.176;2023-04-15T01:10:11;3.10;99.90
17442;DHT22;8838;50.144;8.176;2023-04-15T01:12:38;3.10;99.90
17442;DHT22;8838;50.144;8.176;2023-04-15T01:15:07;3.10;99.90
17442;DHT22;8838;50.144;8.176;2023-04-15T01:17:35;3.10;99.90
17442;DHT22;8838;50.144;8.176;2023-04-15T01:20:03;3.00;99.90
17442;DHT22;8838;50.144;8.176;2023-04-15T01:22:32;3.00;99.90
17442;DHT22;8838;50.144;8.176;2023-04-15T01:25:04;2.90;99.90
17442;DHT22;8838;50.144;8.176;2023-04-15T01:27:34;2.90;99.90
17442;DHT22;8838;50.144;8.176;2023-04-15T01:30:01;2.80;99.90
17442;DHT22;8838;50.144;8.176;2023-04-15T01:32:29;2.80;99.90
17442;DHT22;8838;50.144;8.176;2023-04-15T01:34:56;2.80;99.90
17442;DHT22;8838;50.144;8.176;2023-04-15T01:37:23;2.70;99.90
17442;DHT22;8838;50.144;8.176;2023-04-15T01:39:50;2.80;99.90
17442;DHT22;8838;50.144;8.176;2023-04-15T01:42:17;2.80;99.90
17442;DHT22;8838;50.144;8.176;2023-04-15T01:44:46;2.80;99.90
17442;DHT22;8838;50.144;8.176;2023-04-15T01:47:13;2.90;99.90
17442;DHT22;8838;50.144;8.176;2023-04-15T01:49:39;2.90;99.90
17442;DHT22;8838;50.144;8.176;2023-04-15T01:52:06;2.90;99.90
17442;DHT22;8838;50.144;8.176;2023-04-15T01:54:34;2.70;99.90
17442;DHT22;8838;50.144;8.176;2023-04-15T01:57:01;2.60;99.90
17442;DHT22;8838;50.144;8.176;2023-04-15T01:59:28;2.50;99.90
17442;DHT22;8838;50.144;8.176;2023-04-15T02:01:57;2.50;99.90
17442;DHT22;8838;50.144;8.176;2023-04-15T02:04:24;2.50;99.90
17442;DHT22;8838;50.144;8.176;2023-04-15T02:06:51;2.40;99.90
17442;DHT22;8838;50.144;8.176;2023-04-15T02:09:18;2.30;99.90
17442;DHT22;8838;50.144;8.176;2023-04-15T02:11:45;2.40;99.90
17442;DHT22;8838;50.144;8.176;2023-04-15T02:14:12;2.40;99.90
17442;DHT22;8838;50.144;8.176;2023-04-15T02:16:38;2.40;99.90
17442;DHT22;8838;50.144;8.176;2023-04-15T02:19:08;2.40;99.90
17442;DHT22;8838;50.144;8.176;2023-04-15T02:21:36;2.50;99.90
17442;DHT22;8838;50.144;8.176;2023-04-15T02:24:03;2.40;99.90
17442;DHT22;8838;50.144;8.176;2023-04-15T02:26:30;2.50;99.90
17442;DHT22;8838;50.144;8.176;2023-04-15T02:28:58;2.40;99.90
17442;DHT22;8838;50.144;8.176;2023-04-15T02:31:27;2.20;99.90
17442;DHT22;8838;50.144;8.176;2023-04-15T02:33:54;2.10;99.90
17442;DHT22;8838;50.144;8.176;2023-04-15T02:36:22;2.10;99.90
17442;DHT22;8838;50.144;8.176;2023-04-15T02:38:49;2.10;99.90
17442;DHT22;8838;50.144;8.176;2023-04-15T02:41:16;2.10;99.90
17442;DHT22;8838;50.144;8.176;2023-04-15T02:43:43;2.30;99.90
17442;DHT22;8838;50.144;8.176;2023-04-15T02:46:10;2.30;99.90
17442;DHT22;8838;50.144;8.176;2023-04-15T02:48:39;2.20;99.90
17442;DHT22;8838;50.144;8.176;2023-04-15T02:51:17;2.10;99.90
17442;DHT22;8838;50.144;8.176;2023-04-15T02:53:46;2.00;99.90
17442;DHT22;8838;50.144;8.176;2023-04-15T02:56:13;1.90;99.90
17442;DHT22;8838;50.144;8.176;2023-04-15T02:58:42;2.00;99.90
17442;DHT22;8838;50.144;8.176;2023-04-15T03:01:11;1.90;99.90
17442;DHT22;8838;50.144;8.176;2023-04-15T03:03:39;1.90;99.90
17442;DHT22;8838;50.144;8.176;2023-04-15T03:06:07;1.90;99.90
17442;DHT22;8838;50.144;8.176;2023-04-15T03:08:34;1.90;99.90
17442;DHT22;8838;50.144;8.176;2023-04-15T03:11:05;1.90;99.90
17442;DHT22;8838;50.144;8.176;2023-04-15T03:13:32;1.90;99.90
17442;DHT22;8838;50.144;8.176;2023-04-15T03:15:59;2.00;99.90
17442;DHT22;8838;50.144;8.176;2023-04-15T03:18:26;2.00;99.90
17442;DHT22;8838;50.144;8.176;2023-04-15T03:20:54;2.00;99.90
17442;DHT22;8838;50.144;8.176;2023-04-15T03:23:21;2.00;99.90
17442;DHT22;8838;50.144;8.176;2023-04-15T03:25:49;2.00;99.90
17442;DHT22;8838;50.144;8.176;2023-04-15T03:28:18;2.00;99.90
17442;DHT22;8838;50.144;8.176;2023-04-15T03:30:46;1.90;99.90
17442;DHT22;8838;50.144;8.176;2023-04-15T03:33:13;1.90;99.90
17442;DHT22;8838;50.144;8.176;2023-04-15T03:35:39;1.90;99.90
17442;DHT22;8838;50.144;8.176;2023-04-15T03:38:06;1.90;99.90
17442;DHT22;8838;50.144;8.176;2023-04-15T03:40:33;1.90;99.90
17442;DHT22;8838;50.144;8.176;2023-04-15T03:43:02;1.90;99.90
17442;DHT22;8838;50.144;8.176;2023-04-15T03:45:30;2.10;99.90
17442;DHT22;8838;50.144;8.176;2023-04-15T03:47:57;2.10;99.90
17442;DHT22;8838;50.144;8.176;2023-04-15T03:50:24;1.90;99.90
17442;DHT22;8838;50.144;8.176;2023-04-15T03:52:51;1.80;99.90
17442;DHT22;8838;50.144;8.176;2023-04-15T03:55:18;1.80;99.90
17442;DHT22;8838;50.144;8.176;2023-04-15T03:57:46;1.80;99.90
17442;DHT22;8838;50.144;8.176;2023-04-15T04:00:13;1.80;99.90
17442;DHT22;8838;50.144;8.176;2023-04-15T04:02:41;1.80;99.90
17442;DHT22;8838;50.144;8.176;2023-04-15T04:05:10;1.70;99.90
17442;DHT22;8838;50.144;8.176;2023-04-15T04:07:37;1.70;99.90
17442;DHT22;8838;50.144;8.176;2023-04-15T04:10:05;1.70;99.90
17442;DHT22;8838;50.144;8.176;2023-04-15T04:12:32;1.80;99.90
17442;DHT22;8838;50.144;8.176;2023-04-15T04:14:59;1.80;99.90
17442;DHT22;8838;50.144;8.176;2023-04-15T04:17:26;1.80;99.90
17442;DHT22;8838;50.144;8.176;2023-04-15T04:19:54;1.60;99.90
17442;DHT22;8838;50.144;8.176;2023-04-15T04:22:21;1.50;99.90
17442;DHT22;8838;50.144;8.176;2023-04-15T04:24:49;1.50;99.90
17442;DHT22;8838;50.144;8.176;2023-04-15T04:27:16;1.60;99.90
17442;DHT22;8838;50.144;8.176;2023-04-15T04:29:43;1.70;99.90
17442;DHT22;8838;50.144;8.176;2023-04-15T04:32:12;1.70;99.90
17442;DHT22;8838;50.144;8.176;2023-04-15T04:34:39;1.80;99.90
17442;DHT22;8838;50.144;8.176;2023-04-15T04:37:08;1.60;99.90
17442;DHT22;8838;50.144;8.176;2023-04-15T04:39:35;1.50;99.90
17442;DHT22;8838;50.144;8.176;2023-04-15T04:42:01;1.60;99.90
17442;DHT22;8838;50.144;8.176;2023-04-15T04:44:29;1.50;99.90
17442;DHT22;8838;50.144;8.176;2023-04-15T04:46:56;1.60;99.90
17442;DHT22;8838;50.144;8.176;2023-04-15T04:49:22;1.50;99.90
17442;DHT22;8838;50.144;8.176;2023-04-15T04:51:50;1.60;99.90
17442;DHT22;8838;50.144;8.176;2023-04-15T04:54:19;1.60;99.90
17442;DHT22;8838;50.144;8.176;2023-04-15T04:56:45;1.60;99.90
17442;DHT22;8838;50.144;8.176;2023-04-15T04:59:12;1.70;99.90
17442;DHT22;8838;50.144;8.176;2023-04-15T05:01:39;1.70;99.90
17442;DHT22;8838;50.144;8.176;2023-04-15T05:04:06;1.70;99.90
17442;DHT22;8838;50.144;8.176;2023-04-15T05:06:33;1.80;99.90
17442;DHT22;8838;50.144;8.176;2023-04-15T05:09:01;1.90;99.90
17442;DHT22;8838;50.144;8.176;2023-04-15T05:11:29;2.00;99.90
17442;DHT22;8838;50.144;8.176;2023-04-15T05:13:56;2.10;99.90
17442;DHT22;8838;50.144;8.176;2023-04-15T05:16:24;2.10;99.90
17442;DHT22;8838;50.144;8.176;2023-04-15T05:18:51;2.20;99.90
17442;DHT22;8838;50.144;8.176;2023-04-15T05:21:18;2.20;99.90
17442;DHT22;8838;50.144;8.176;2023-04-15T05:23:45;2.20;99.90
17442;DHT22;8838;50.144;8.176;2023-04-15T05:26:12;2.20;99.90
17442;DHT22;8838;50.144;8.176;2023-04-15T05:28:40;2.30;99.90
17442;DHT22;8838;50.144;8.176;2023-04-15T05:31:07;2.30;99.90
17442;DHT22;8838;50.144;8.176;2023-04-15T05:33:35;2.30;99.90
17442;DHT22;8838;50.144;8.176;2023-04-15T05:36:02;2.30;99.90
17442;DHT22;8838;50.144;8.176;2023-04-15T05:38:29;2.30;99.90
17442;DHT22;8838;50.144;8.176;2023-04-15T05:40:56;2.30;99.90
17442;DHT22;8838;50.144;8.176;2023-04-15T05:43:23;2.30;99.90
17442;DHT22;8838;50.144;8.176;2023-04-15T05:45:51;2.30;99.90
17442;DHT22;8838;50.144;8.176;2023-04-15T05:48:18;2.30;99.90
17442;DHT22;8838;50.144;8.176;2023-04-15T05:50:45;2.20;99.90
17442;DHT22;8838;50.144;8.176;2023-04-15T05:53:12;2.10;99.90
17442;DHT22;8838;50.144;8.176;2023-04-15T05:55:39;2.10;99.90
17442;DHT22;8838;50.144;8.176;2023-04-15T05:58:06;2.20;99.90
17442;DHT22;8838;50.144;8.176;2023-04-15T06:00:33;2.30;99.90
17442;DHT22;8838;50.144;8.176;2023-04-15T06:03:02;2.40;99.90
17442;DHT22;8838;50.144;8.176;2023-04-15T06:05:29;2.50;99.90
17442;DHT22;8838;50.144;8.176;2023-04-15T06:07:56;2.50;99.90
17442;DHT22;8838;50.144;8.176;2023-04-15T06:10:23;2.40;99.90
17442;DHT22;8838;50.144;8.176;2023-04-15T06:12:52;2.50;99.90
17442;DHT22;8838;50.144;8.176;2023-04-15T06:15:19;2.50;99.90
17442;DHT22;8838;50.144;8.176;2023-04-15T06:17:46;2.60;99.90
17442;DHT22;8838;50.144;8.176;2023-04-15T06:20:14;2.60;99.90
17442;DHT22;8838;50.144;8.176;2023-04-15T06:22:41;2.70;99.90
17442;DHT22;8838;50.144;8.176;2023-04-15T06:25:09;2.80;99.90
17442;DHT22;8838;50.144;8.176;2023-04-15T06:27:36;2.90;99.90
17442;DHT22;8838;50.144;8.176;2023-04-15T06:30:04;3.00;99.90
17442;DHT22;8838;50.144;8.176;2023-04-15T06:32:33;3.00;99.90
17442;DHT22;8838;50.144;8.176;2023-04-15T06:35:00;3.10;99.90
17442;DHT22;8838;50.144;8.176;2023-04-15T06:37:31;3.20;99.90
17442;DHT22;8838;50.144;8.176;2023-04-15T06:40:02;3.20;99.90
17442;DHT22;8838;50.144;8.176;2023-04-15T06:42:29;3.30;99.90
17442;DHT22;8838;50.144;8.176;2023-04-15T06:44:56;3.40;99.90
17442;DHT22;8838;50.144;8.176;2023-04-15T06:47:23;3.60;99.90
17442;DHT22;8838;50.144;8.176;2023-04-15T06:49:50;3.90;99.90
17442;DHT22;8838;50.144;8.176;2023-04-15T06:52:19;4.10;99.90
17442;DHT22;8838;50.144;8.176;2023-04-15T06:54:48;4.30;99.90
17442;DHT22;8838;50.144;8.176;2023-04-15T06:57:15;4.50;99.90
17442;DHT22;8838;50.144;8.176;2023-04-15T06:59:42;4.80;99.90
17442;DHT22;8838;50.144;8.176;2023-04-15T07:02:11;5.10;99.90
17442;DHT22;8838;50.144;8.176;2023-04-15T07:04:39;5.50;99.90
17442;DHT22;8838;50.144;8.176;2023-04-15T07:07:06;5.80;99.90
17442;DHT22;8838;50.144;8.176;2023-04-15T07:09:32;6.20;99.90
17442;DHT22;8838;50.144;8.176;2023-04-15T07:12:01;6.40;99.90
17442;DHT22;8838;50.144;8.176;2023-04-15T07:14:28;6.70;99.90
17442;DHT22;8838;50.144;8.176;2023-04-15T07:16:55;7.10;99.90
17442;DHT22;8838;50.144;8.176;2023-04-15T07:19:22;7.40;99.90
17442;DHT22;8838;50.144;8.176;2023-04-15T07:21:49;7.70;99.90
17442;DHT22;8838;50.144;8.176;2023-04-15T07:24:16;8.00;99.90
17442;DHT22;8838;50.144;8.176;2023-04-15T07:26:45;8.60;99.90
17442;DHT22;8838;50.144;8.176;2023-04-15T07:29:13;9.00;99.90
17442;DHT22;8838;50.144;8.176;2023-04-15T07:31:40;9.40;99.90
17442;DHT22;8838;50.144;8.176;2023-04-15T07:34:07;9.60;99.90
17442;DHT22;8838;50.144;8.176;2023-04-15T07:36:36;9.80;99.90
17442;DHT22;8838;50.144;8.176;2023-04-15T07:39:05;10.10;99.90
17442;DHT22;8838;50.144;8.176;2023-04-15T07:41:32;10.90;99.90
17442;DHT22;8838;50.144;8.176;2023-04-15T07:43:59;11.60;99.90
17442;DHT22;8838;50.144;8.176;2023-04-15T07:46:28;11.50;99.90
17442;DHT22;8838;50.144;8.176;2023-04-15T07:48:55;11.50;99.90
17442;DHT22;8838;50.144;8.176;2023-04-15T07:51:22;11.80;99.90
17442;DHT22;8838;50.144;8.176;2023-04-15T07:53:49;12.10;99.90
17442;DHT22;8838;50.144;8.176;2023-04-15T07:56:16;12.30;99.90
17442;DHT22;8838;50.144;8.176;2023-04-15T07:58:46;12.70;99.90
17442;DHT22;8838;50.144;8.176;2023-04-15T08:01:13;13.10;99.90
17442;DHT22;8838;50.144;8.176;2023-04-15T08:03:42;13.40;99.90
17442;DHT22;8838;50.144;8.176;2023-04-15T08:06:09;13.90;99.90
17442;DHT22;8838;50.144;8.176;2023-04-15T08:08:35;14.10;99.90
17442;DHT22;8838;50.144;8.176;2023-04-15T08:11:02;14.30;99.90
17442;DHT22;8838;50.144;8.176;2023-04-15T08:13:29;14.50;99.90
17442;DHT22;8838;50.144;8.176;2023-04-15T08:16:17;14.70;99.90
17442;DHT22;8838;50.144;8.176;2023-04-15T08:18:46;15.00;99.90
17442;DHT22;8838;50.144;8.176;2023-04-15T08:21:13;15.20;99.90
17442;DHT22;8838;50.144;8.176;2023-04-15T08:23:40;15.20;99.90
17442;DHT22;8838;50.144;8.176;2023-04-15T08:26:11;15.50;99.90
17442;DHT22;8838;50.144;8.176;2023-04-15T08:28:39;15.80;99.90
17442;DHT22;8838;50.144;8.176;2023-04-15T08:31:07;15.80;99.90
17442;DHT22;8838;50.144;8.176;2023-04-15T08:33:34;15.80;99.90
17442;DHT22;8838;50.144;8.176;2023-04-15T08:36:02;15.80;99.90
17442;DHT22;8838;50.144;8.176;2023-04-15T08:38:30;15.60;99.90
17442;DHT22;8838;50.144;8.176;2023-04-15T08:40:59;15.20;99.90
17442;DHT22;8838;50.144;8.176;2023-04-15T08:43:28;14.60;99.90
17442;DHT22;8838;50.144;8.176;2023-04-15T08:45:59;14.50;99.90
17442;DHT22;8838;50.144;8.176;2023-04-15T08:48:28;14.90;99.90
17442;DHT22;8838;50.144;8.176;2023-04-15T08:50:56;14.90;99.90
17442;DHT22;8838;50.144;8.176;2023-04-15T08:53:27;15.00;99.90
17442;DHT22;8838;50.144;8.176;2023-04-15T08:55:56;14.90;99.90
17442;DHT22;8838;50.144;8.176;2023-04-15T08:58:24;15.20;99.90
17442;DHT22;8838;50.144;8.176;2023-04-15T09:00:51;15.20;99.90
17442;DHT22;8838;50.144;8.176;2023-04-15T09:03:18;14.90;99.90
17442;DHT22;8838;50.144;8.176;2023-04-15T09:05:46;14.60;99.90
17442;DHT22;8838;50.144;8.176;2023-04-15T09:08:13;14.50;99.90
17442;DHT22;8838;50.144;8.176;2023-04-15T09:10:41;14.20;99.90
17442;DHT22;8838;50.144;8.176;2023-04-15T09:13:08;13.90;99.90
17442;DHT22;8838;50.144;8.176;2023-04-15T09:15:37;13.90;99.90
17442;DHT22;8838;50.144;8.176;2023-04-15T09:18:04;14.00;99.90
17442;DHT22;8838;50.144;8.176;2023-04-15T09:20:38;13.90;99.90
17442;DHT22;8838;50.144;8.176;2023-04-15T09:23:11;13.90;99.90
17442;DHT22;8838;50.144;8.176;2023-04-15T09:25:40;13.90;99.90
17442;DHT22;8838;50.144;8.176;2023-04-15T09:28:08;13.80;99.90
17442;DHT22;8838;50.144;8.176;2023-04-15T09:30:35;14.20;99.90
17442;DHT22;8838;50.144;8.176;2023-04-15T09:33:04;14.30;99.90
17442;DHT22;8838;50.144;8.176;2023-04-15T09:35:33;14.20;99.90
17442;DHT22;8838;50.144;8.176;2023-04-15T09:38:02;14.20;99.90
17442;DHT22;8838;50.144;8.176;2023-04-15T09:40:33;14.50;99.90
17442;DHT22;8838;50.144;8.176;2023-04-15T09:43:03;14.30;99.90
17442;DHT22;8838;50.144;8.176;2023-04-15T09:45:32;13.90;99.90
17442;DHT22;8838;50.144;8.176;2023-04-15T09:48:16;13.60;99.90
17442;DHT22;8838;50.144;8.176;2023-04-15T09:50:43;13.60;99.90
17442;DHT22;8838;50.144;8.176;2023-04-15T09:53:10;13.40;99.90
17442;DHT22;8838;50.144;8.176;2023-04-15T09:55:43;13.20;99.90
17442;DHT22;8838;50.144;8.176;2023-04-15T09:58:18;13.20;99.90
17442;DHT22;8838;50.144;8.176;2023-04-15T10:00:47;13.40;99.90
17442;DHT22;8838;50.144;8.176;2023-04-15T10:03:18;13.60;99.90
17442;DHT22;8838;50.144;8.176;2023-04-15T10:05:47;13.70;99.90
17442;DHT22;8838;50.144;8.176;2023-04-15T10:08:16;13.90;99.90
17442;DHT22;8838;50.144;8.176;2023-04-15T10:10:46;13.90;99.90
17442;DHT22;8838;50.144;8.176;2023-04-15T10:13:20;14.20;99.90
17442;DHT22;8838;50.144;8.176;2023-04-15T10:15:51;14.40;99.90
17442;DHT22;8838;50.144;8.176;2023-04-15T10:18:24;14.30;99.90
17442;DHT22;8838;50.144;8.176;2023-04-15T10:20:52;14.30;99.90
17442;DHT22;8838;50.144;8.176;2023-04-15T10:23:19;14.10;99.90
17442;DHT22;8838;50.144;8.176;2023-04-15T10:25:47;13.60;99.90
17442;DHT22;8838;50.144;8.176;2023-04-15T10:28:15;13.20;99.90
17442;DHT22;8838;50.144;8.176;2023-04-15T10:30:43;12.90;99.90
17442;DHT22;8838;50.144;8.176;2023-04-15T10:33:11;12.70;99.90
17442;DHT22;8838;50.144;8.176;2023-04-15T10:35:38;12.40;99.90
17442;DHT22;8838;50.144;8.176;2023-04-15T10:38:33;12.20;99.90
17442;DHT22;8838;50.144;8.176;2023-04-15T10:41:18;12.00;99.90
17442;DHT22;8838;50.144;8.176;2023-04-15T10:43:47;12.00;99.90
17442;DHT22;8838;50.144;8.176;2023-04-15T10:46:18;12.10;99.90
17442;DHT22;8838;50.144;8.176;2023-04-15T10:48:48;12.10;99.90
17442;DHT22;8838;50.144;8.176;2023-04-15T10:51:15;12.20;99.90
17442;DHT22;8838;50.144;8.176;2023-04-15T10:53:43;12.10;99.90
17442;DHT22;8838;50.144;8.176;2023-04-15T10:56:10;12.10;99.90
17442;DHT22;8838;50.144;8.176;2023-04-15T10:58:43;12.10;99.90
17442;DHT22;8838;50.144;8.176;2023-04-15T11:01:12;12.00;99.90
17442;DHT22;8838;50.144;8.176;2023-04-15T11:03:42;11.90;99.90
17442;DHT22;8838;50.144;8.176;2023-04-15T11:06:14;11.80;99.90
17442;DHT22;8838;50.144;8.176;2023-04-15T11:08:53;11.70;99.90
17442;DHT22;8838;50.144;8.176;2023-04-15T11:11:21;11.80;99.90
17442;DHT22;8838;50.144;8.176;2023-04-15T11:13:49;11.90;99.90
17442;DHT22;8838;50.144;8.176;2023-04-15T11:16:17;12.10;99.90
17442;DHT22;8838;50.144;8.176;2023-04-15T11:18:54;12.20;99.90
17442;DHT22;8838;50.144;8.176;2023-04-15T11:21:24;12.60;99.90
17442;DHT22;8838;50.144;8.176;2023-04-15T11:23:52;12.80;99.90
17442;DHT22;8838;50.144;8.176;2023-04-15T11:26:25;13.00;99.90
17442;DHT22;8838;50.144;8.176;2023-04-15T11:28:52;13.00;99.90
17442;DHT22;8838;50.144;8.176;2023-04-15T11:31:19;13.10;99.90
17442;DHT22;8838;50.144;8.176;2023-04-15T11:33:55;13.10;99.90
17442;DHT22;8838;50.144;8.176;2023-04-15T11:36:24;13.00;99.90
17442;DHT22;8838;50.144;8.176;2023-04-15T11:38:52;13.10;99.90
17442;DHT22;8838;50.144;8.176;2023-04-15T11:41:20;13.10;99.90
17442;DHT22;8838;50.144;8.176;2023-04-15T11:43:49;12.90;99.90
17442;DHT22;8838;50.144;8.176;2023-04-15T11:46:16;12.70;99.90
17442;DHT22;8838;50.144;8.176;2023-04-15T11:48:44;12.50;99.90
17442;DHT22;8838;50.144;8.176;2023-04-15T11:51:13;12.40;99.90
17442;DHT22;8838;50.144;8.176;2023-04-15T11:53:46;12.10;99.90
17442;DHT22;8838;50.144;8.176;2023-04-15T11:56:20;12.20;99.90
17442;DHT22;8838;50.144;8.176;2023-04-15T11:58:50;12.30;99.90
17442;DHT22;8838;50.144;8.176;2023-04-15T12:01:19;12.50;99.90
17442;DHT22;8838;50.144;8.176;2023-04-15T12:03:46;12.60;99.90
17442;DHT22;8838;50.144;8.176;2023-04-15T12:06:17;12.80;99.90
17442;DHT22;8838;50.144;8.176;2023-04-15T12:09:08;12.90;99.90
17442;DHT22;8838;50.144;8.176;2023-04-15T12:11:41;13.10;99.90
17442;DHT22;8838;50.144;8.176;2023-04-15T12:14:15;13.10;99.90
17442;DHT22;8838;50.144;8.176;2023-04-15T12:16:44;12.90;99.90
17442;DHT22;8838;50.144;8.176;2023-04-15T12:19:15;12.60;99.90
17442;DHT22;8838;50.144;8.176;2023-04-15T12:21:45;12.20;99.90
17442;DHT22;8838;50.144;8.176;2023-04-15T12:24:13;12.00;99.90
17442;DHT22;8838;50.144;8.176;2023-04-15T12:26:44;11.80;99.90
17442;DHT22;8838;50.144;8.176;2023-04-15T12:29:13;11.80;99.90
17442;DHT22;8838;50.144;8.176;2023-04-15T12:31:51;11.80;99.90
17442;DHT22;8838;50.144;8.176;2023-04-15T12:34:25;11.80;99.90
17442;DHT22;8838;50.144;8.176;2023-04-15T12:36:54;11.90;99.90
17442;DHT22;8838;50.144;8.176;2023-04-15T12:39:22;11.80;99.90
17442;DHT22;8838;50.144;8.176;2023-04-15T12:41:49;11.80;99.90
17442;DHT22;8838;50.144;8.176;2023-04-15T12:44:17;11.80;99.90
17442;DHT22;8838;50.144;8.176;2023-04-15T12:46:44;11.80;99.90
17442;DHT22;8838;50.144;8.176;2023-04-15T12:49:12;11.70;99.90
17442;DHT22;8838;50.144;8.176;2023-04-15T12:51:40;11.70;99.90
17442;DHT22;8838;50.144;8.176;2023-04-15T12:54:09;11.60;99.90
17442;DHT22;8838;50.144;8.176;2023-04-15T12:56:35;11.40;99.90
17442;DHT22;8838;50.144;8.176;2023-04-15T12:59:02;11.30;99.90
17442;DHT22;8838;50.144;8.176;2023-04-15T13:01:30;11.20;99.90
17442;DHT22;8838;50.144;8.176;2023-04-15T13:03:57;11.00;99.90
17442;DHT22;8838;50.144;8.176;2023-04-15T13:06:24;10.70;99.90
17442;DHT22;8838;50.144;8.176;2023-04-15T13:08:51;10.50;99.90
17442;DHT22;8838;50.144;8.176;2023-04-15T13:11:21;10.50;99.90
17442;DHT22;8838;50.144;8.176;2023-04-15T13:13:48;10.40;99.90
17442;DHT22;8838;50.144;8.176;2023-04-15T13:16:15;10.40;99.90
17442;DHT22;8838;50.144;8.176;2023-04-15T13:18:42;10.40;99.90
17442;DHT22;8838;50.144;8.176;2023-04-15T13:21:11;10.40;99.90
17442;DHT22;8838;50.144;8.176;2023-04-15T13:23:38;10.50;99.90
17442;DHT22;8838;50.144;8.176;2023-04-15T13:26:05;10.50;99.90
17442;DHT22;8838;50.144;8.176;2023-04-15T13:28:34;10.50;99.90
17442;DHT22;8838;50.144;8.176;2023-04-15T13:31:03;10.60;99.90
17442;DHT22;8838;50.144;8.176;2023-04-15T13:33:30;10.50;99.90
17442;DHT22;8838;50.144;8.176;2023-04-15T13:35:57;10.30;99.90
17442;DHT22;8838;50.144;8.176;2023-04-15T13:38:24;10.30;99.90
17442;DHT22;8838;50.144;8.176;2023-04-15T13:40:51;10.30;99.90
17442;DHT22;8838;50.144;8.176;2023-04-15T13:43:20;10.30;99.90
17442;DHT22;8838;50.144;8.176;2023-04-15T13:45:48;10.40;99.90
17442;DHT22;8838;50.144;8.176;2023-04-15T13:48:16;10.30;99.90
17442;DHT22;8838;50.144;8.176;2023-04-15T13:50:43;10.10;99.90
17442;DHT22;8838;50.144;8.176;2023-04-15T13:53:10;10.00;99.90
17442;DHT22;8838;50.144;8.176;2023-04-15T13:55:37;10.10;99.90
17442;DHT22;8838;50.144;8.176;2023-04-15T13:58:07;10.00;99.90
17442;DHT22;8838;50.144;8.176;2023-04-15T14:00:34;9.70;99.90
17442;DHT22;8838;50.144;8.176;2023-04-15T14:03:02;9.60;99.90
17442;DHT22;8838;50.144;8.176;2023-04-15T14:05:29;9.40;99.90
17442;DHT22;8838;50.144;8.176;2023-04-15T14:07:56;9.20;99.90
17442;DHT22;8838;50.144;8.176;2023-04-15T14:10:24;9.10;99.90
17442;DHT22;8838;50.144;8.176;2023-04-15T14:12:51;8.90;99.90
17442;DHT22;8838;50.144;8.176;2023-04-15T14:15:18;8.80;99.90
17442;DHT22;8838;50.144;8.176;2023-04-15T14:17:45;8.70;99.90
17442;DHT22;8838;50.144;8.176;2023-04-15T14:20:13;8.70;99.90
17442;DHT22;8838;50.144;8.176;2023-04-15T14:22:40;8.70;99.90
17442;DHT22;8838;50.144;8.176;2023-04-15T14:25:08;8.70;99.90
17442;DHT22;8838;50.144;8.176;2023-04-15T14:27:35;8.70;99.90
17442;DHT22;8838;50.144;8.176;2023-04-15T14:30:02;8.70;99.90
17442;DHT22;8838;50.144;8.176;2023-04-15T14:32:29;8.80;99.90
17442;DHT22;8838;50.144;8.176;2023-04-15T14:34:55;8.80;99.90
17442;DHT22;8838;50.144;8.176;2023-04-15T14:37:24;8.80;99.90
17442;DHT22;8838;50.144;8.176;2023-04-15T14:39:51;8.80;99.90
17442;DHT22;8838;50.144;8.176;2023-04-15T14:42:18;8.80;99.90
17442;DHT22;8838;50.144;8.176;2023-04-15T14:44:45;8.70;99.90
17442;DHT22;8838;50.144;8.176;2023-04-15T14:47:11;8.70;99.90
17442;DHT22;8838;50.144;8.176;2023-04-15T14:49:40;8.60;99.90
17442;DHT22;8838;50.144;8.176;2023-04-15T14:52:07;8.60;99.90
17442;DHT22;8838;50.144;8.176;2023-04-15T14:54:35;8.70;99.90
17442;DHT22;8838;50.144;8.176;2023-04-15T14:57:02;8.60;99.90
17442;DHT22;8838;50.144;8.176;2023-04-15T14:59:29;8.60;99.90
17442;DHT22;8838;50.144;8.176;2023-04-15T15:01:56;8.70;99.90
17442;DHT22;8838;50.144;8.176;2023-04-15T15:04:23;8.80;99.90
17442;DHT22;8838;50.144;8.176;2023-04-15T15:06:50;8.80;99.90
17442;DHT22;8838;50.144;8.176;2023-04-15T15:09:17;8.80;99.90
17442;DHT22;8838;50.144;8.176;2023-04-15T15:11:48;8.80;99.90
17442;DHT22;8838;50.144;8.176;2023-04-15T15:14:15;8.70;99.90
17442;DHT22;8838;50.144;8.176;2023-04-15T15:16:42;8.50;99.90
17442;DHT22;8838;50.144;8.176;2023-04-15T15:19:09;8.50;99.90
17442;DHT22;8838;50.144;8.176;2023-04-15T15:21:35;8.40;99.90
17442;DHT22;8838;50.144;8.176;2023-04-15T15:24:03;8.40;99.90
17442;DHT22;8838;50.144;8.176;2023-04-15T15:26:30;8.40;99.90
17442;DHT22;8838;50.144;8.176;2023-04-15T15:28:59;8.40;99.90
17442;DHT22;8838;50.144;8.176;2023-04-15T15:31:26;8.40;99.90
17442;DHT22;8838;50.144;8.176;2023-04-15T15:33:52;8.30;99.90
17442;DHT22;8838;50.144;8.176;2023-04-15T15:36:19;8.10;99.90
17442;DHT22;8838;50.144;8.176;2023-04-15T15:38:46;8.10;99.90
17442;DHT22;8838;50.144;8.176;2023-04-15T15:41:13;8.30;99.90
17442;DHT22;8838;50.144;8.176;2023-04-15T15:43:41;8.40;99.90
17442;DHT22;8838;50.144;8.176;2023-04-15T15:46:09;8.40;99.90
17442;DHT22;8838;50.144;8.176;2023-04-15T15:48:36;8.40;99.90
17442;DHT22;8838;50.144;8.176;2023-04-15T15:51:03;8.40;99.90
17442;DHT22;8838;50.144;8.176;2023-04-15T15:53:30;8.40;99.90
17442;DHT22;8838;50.144;8.176;2023-04-15T15:55:57;8.40;99.90
17442;DHT22;8838;50.144;8.176;2023-04-15T15:58:23;8.50;99.90
17442;DHT22;8838;50.144;8.176;2023-04-15T16:00:50;8.50;99.90